Time;durP1;ratioP1;P1;durP2;ratioP2;P2;SDS_P1;SDS_P2;PMS_P1;PMS_P2;Temp;Humidity;BMP_temperature;BMP_pressure;BME280_temperature;BME280_humidity;BME280_pressure;Samples;Min_cycle;Max_cycle;Signal;HPM_P1;HPM_P2
2021/01/12 00:02:16;;;;;;;7.20;4.53;;;6.40;99.90;;;;;;5072955;28;20238;-77
2021/01/12 00:04:43;;;;;;;5.27;4.03;;;6.40;99.90;;;;;;5073013;28;20240;-77
2021/01/12 00:07:09;;;;;;;6.50;4.40;;;6.40;99.90;;;;;;5053355;28;20735;-77
2021/01/12 00:09:36;;;;;;;6.90;4.57;;;6.40;99.90;;;;;;5053237;28;20229;-77
2021/01/12 00:12:02;;;;;;;5.47;3.90;;;6.40;99.90;;;;;;5057166;28;20238;-77
2021/01/12 00:14:33;;;;;;;5.53;3.83;;;6.40;99.90;;;;;;5053251;28;20233;-77
2021/01/12 00:17:00;;;;;;;6.63;4.03;;;6.30;99.90;;;;;;5053091;28;20237;-77
2021/01/12 00:19:27;;;;;;;6.27;3.87;;;6.30;99.90;;;;;;5065452;28;20324;-77
2021/01/12 00:21:54;;;;;;;5.87;3.70;;;6.40;99.90;;;;;;5072989;28;20577;-77
2021/01/12 00:24:21;;;;;;;6.40;3.40;;;6.40;99.90;;;;;;5052997;28;20233;-77
2021/01/12 00:26:48;;;;;;;6.63;3.43;;;6.40;99.90;;;;;;5061772;28;20197;-77
2021/01/12 00:29:14;;;;;;;4.30;3.40;;;6.40;99.90;;;;;;5072491;28;20637;-77
2021/01/12 00:31:42;;;;;;;5.97;3.53;;;6.40;99.90;;;;;;5073032;28;20286;-77
2021/01/12 00:34:09;;;;;;;5.30;3.40;;;6.40;99.90;;;;;;5073037;28;20233;-77
2021/01/12 00:36:43;;;;;;;5.47;3.60;;;6.40;99.90;;;;;;5071792;28;20223;-77
2021/01/12 00:39:10;;;;;;;5.57;3.70;;;6.40;99.90;;;;;;5072885;28;20731;-77
2021/01/12 00:41:37;;;;;;;5.30;3.60;;;6.40;99.90;;;;;;5071743;28;20237;-77
2021/01/12 00:44:04;;;;;;;6.80;3.40;;;6.40;99.90;;;;;;5073172;28;20231;-77
2021/01/12 00:46:32;;;;;;;6.07;3.60;;;6.40;99.90;;;;;;5072242;28;20266;-76
2021/01/12 00:48:59;;;;;;;7.20;3.50;;;6.30;99.90;;;;;;5071988;28;20312;-77
2021/01/12 00:51:33;;;;;;;5.33;3.93;;;6.30;99.90;;;;;;5072581;28;20219;-77
2021/01/12 00:54:00;;;;;;;6.30;4.00;;;6.30;99.90;;;;;;5060333;28;20931;-77
2021/01/12 00:56:26;;;;;;;5.97;3.30;;;6.40;99.90;;;;;;5071006;28;20204;-77
2021/01/12 00:58:53;;;;;;;4.80;3.40;;;6.40;99.90;;;;;;5072647;28;20237;-77
2021/01/12 01:01:19;;;;;;;7.67;3.60;;;6.40;99.90;;;;;;5064420;28;20691;-77
2021/01/12 01:03:46;;;;;;;7.77;4.00;;;6.40;99.90;;;;;;5067675;28;20236;-77
2021/01/12 01:06:14;;;;;;;5.07;3.33;;;6.40;99.90;;;;;;5064329;28;20782;-77
2021/01/12 01:08:40;;;;;;;5.30;3.67;;;6.40;99.90;;;;;;5072483;28;20335;-77
2021/01/12 01:11:06;;;;;;;4.27;3.40;;;6.40;99.90;;;;;;5055028;28;20231;-77
2021/01/12 01:13:33;;;;;;;5.60;3.40;;;6.40;99.90;;;;;;5052004;28;20287;-77
2021/01/12 01:15:59;;;;;;;4.50;3.07;;;6.40;99.90;;;;;;5052451;28;20284;-77
2021/01/12 01:18:26;;;;;;;3.93;3.03;;;6.40;99.90;;;;;;5052393;28;20251;-77
2021/01/12 01:20:55;;;;;;;3.23;2.77;;;6.40;99.90;;;;;;5051906;28;20316;-76
2021/01/12 01:23:22;;;;;;;6.40;3.20;;;6.50;99.90;;;;;;5052585;28;20236;-76
2021/01/12 01:25:50;;;;;;;3.93;3.13;;;6.50;99.90;;;;;;5052278;28;20278;-77
2021/01/12 01:28:17;;;;;;;5.17;2.77;;;6.50;99.90;;;;;;5052344;28;20241;-77
2021/01/12 01:30:44;;;;;;;7.50;3.17;;;6.50;99.90;;;;;;5052096;28;20269;-77
2021/01/12 01:33:10;;;;;;;4.57;3.20;;;6.50;99.90;;;;;;5052210;28;20260;-77
2021/01/12 01:35:37;;;;;;;5.47;3.37;;;6.50;99.90;;;;;;5052150;28;20233;-77
2021/01/12 01:38:03;;;;;;;5.97;3.00;;;6.50;99.90;;;;;;5051813;28;20208;-77
2021/01/12 01:40:31;;;;;;;4.90;2.73;;;6.50;99.90;;;;;;5052303;28;20240;-77
2021/01/12 01:42:57;;;;;;;4.30;2.23;;;6.50;99.90;;;;;;5051914;28;20236;-77
2021/01/12 01:45:24;;;;;;;3.23;2.27;;;6.50;99.90;;;;;;5052057;28;20265;-77
2021/01/12 01:47:51;;;;;;;4.00;2.70;;;6.50;99.90;;;;;;5053130;28;20489;-77
2021/01/12 01:50:20;;;;;;;5.30;2.17;;;6.50;99.90;;;;;;5072556;28;20237;-77
2021/01/12 01:52:50;;;;;;;3.77;2.57;;;6.50;99.90;;;;;;5069673;28;20241;-77
2021/01/12 01:55:18;;;;;;;4.03;2.40;;;6.50;99.90;;;;;;5054774;28;20237;-77
2021/01/12 01:57:45;;;;;;;5.70;2.97;;;6.60;99.90;;;;;;5051702;28;20241;-77
2021/01/12 02:00:15;;;;;;;3.70;2.80;;;6.60;99.90;;;;;;5069718;28;20227;-77
2021/01/12 02:02:53;;;;;;;3.73;2.10;;;6.60;99.90;;;;;;5076098;28;20291;-76
2021/01/12 02:05:23;;;;;;;3.90;2.50;;;6.50;99.90;;;;;;5069980;28;20348;-77
2021/01/12 02:07:53;;;;;;;4.67;2.57;;;6.50;99.90;;;;;;5060200;28;20256;-77
2021/01/12 02:10:23;;;;;;;3.23;2.40;;;6.50;99.90;;;;;;5037819;28;20707;-77
2021/01/12 02:12:56;;;;;;;3.47;2.30;;;6.50;99.90;;;;;;5074113;28;20228;-77
2021/01/12 02:15:24;;;;;;;4.13;2.23;;;6.50;99.90;;;;;;5065899;28;20193;-77
2021/01/12 02:17:51;;;;;;;3.70;2.30;;;6.50;99.90;;;;;;5074370;28;20199;-77
2021/01/12 02:20:21;;;;;;;3.43;2.07;;;6.50;99.90;;;;;;5067178;28;20334;-77
2021/01/12 02:23:02;;;;;;;3.73;2.30;;;6.50;99.90;;;;;;5068050;28;20240;-78
2021/01/12 02:25:31;;;;;;;4.57;2.37;;;6.50;99.90;;;;;;5072845;28;20256;-77
2021/01/12 02:27:58;;;;;;;3.80;2.43;;;6.50;99.90;;;;;;5075177;28;20287;-77
2021/01/12 02:30:24;;;;;;;4.87;2.10;;;6.50;99.90;;;;;;5075878;28;20248;-77
2021/01/12 02:32:51;;;;;;;7.57;2.57;;;6.50;99.90;;;;;;5067496;28;20237;-77
2021/01/12 02:35:20;;;;;;;3.37;2.07;;;6.50;99.90;;;;;;5075016;28;20255;-77
2021/01/12 02:37:47;;;;;;;4.20;2.10;;;6.50;99.90;;;;;;5065860;28;20205;-76
2021/01/12 02:40:14;;;;;;;5.43;1.90;;;6.50;99.90;;;;;;5054571;28;20190;-77
2021/01/12 02:42:43;;;;;;;6.27;2.00;;;6.50;99.90;;;;;;5060708;28;20199;-77
2021/01/12 02:45:11;;;;;;;4.97;2.43;;;6.50;99.90;;;;;;5050317;28;20267;-77
2021/01/12 02:47:37;;;;;;;4.67;2.20;;;6.50;99.90;;;;;;5037122;28;20772;-76
2021/01/12 02:50:05;;;;;;;4.10;2.07;;;6.50;99.90;;;;;;5074031;28;20240;-77
2021/01/12 02:52:31;;;;;;;3.37;2.13;;;6.50;99.90;;;;;;5071794;28;20242;-77
2021/01/12 02:54:58;;;;;;;3.40;2.20;;;6.50;99.90;;;;;;5057426;28;20229;-77
2021/01/12 02:57:24;;;;;;;5.10;2.30;;;6.50;99.90;;;;;;5064539;28;20237;-77
2021/01/12 02:59:52;;;;;;;4.30;2.20;;;6.50;99.90;;;;;;5074952;28;20237;-77
2021/01/12 03:02:18;;;;;;;7.27;2.73;;;6.50;99.90;;;;;;5074970;28;20316;-77
2021/01/12 03:04:45;;;;;;;3.97;1.90;;;6.50;99.90;;;;;;5074194;28;20562;-77
2021/01/12 03:07:11;;;;;;;3.50;1.97;;;6.50;99.90;;;;;;5054291;28;20246;-77
2021/01/12 03:09:37;;;;;;;3.30;1.70;;;6.50;99.90;;;;;;5064162;28;20243;-77
2021/01/12 03:12:05;;;;;;;2.90;1.83;;;6.50;99.90;;;;;;5073659;28;20233;-78
2021/01/12 03:14:31;;;;;;;3.63;1.90;;;6.50;99.90;;;;;;5073174;28;20665;-77
2021/01/12 03:16:59;;;;;;;3.43;1.70;;;6.50;99.90;;;;;;5074422;28;20204;-77
2021/01/12 03:19:26;;;;;;;5.43;1.90;;;6.60;99.90;;;;;;5059190;28;20228;-78
2021/01/12 03:21:52;;;;;;;2.57;1.70;;;6.60;99.90;;;;;;5054606;28;20305;-77
2021/01/12 03:24:18;;;;;;;5.20;1.87;;;6.60;99.90;;;;;;5059971;28;20627;-77
2021/01/12 03:26:45;;;;;;;3.53;1.40;;;6.60;99.90;;;;;;5074694;28;20223;-77
2021/01/12 03:29:11;;;;;;;3.83;1.80;;;6.60;99.90;;;;;;5074152;28;20309;-77
2021/01/12 03:31:38;;;;;;;2.30;1.67;;;6.60;99.90;;;;;;5073985;28;20724;-77
2021/01/12 03:34:05;;;;;;;3.20;1.70;;;6.60;99.90;;;;;;5056604;28;20238;-77
2021/01/12 03:36:32;;;;;;;3.73;1.47;;;6.60;99.90;;;;;;5054314;28;20229;-77
2021/01/12 03:38:58;;;;;;;2.90;1.60;;;6.60;99.90;;;;;;5054249;28;20237;-77
2021/01/12 03:41:24;;;;;;;3.37;1.77;;;6.60;99.90;;;;;;5054134;28;20275;-77
2021/01/12 03:43:51;;;;;;;3.87;1.80;;;6.60;99.90;;;;;;5054372;28;20244;-77
2021/01/12 03:46:17;;;;;;;2.60;1.63;;;6.50;99.90;;;;;;5053530;28;20317;-77
2021/01/12 03:48:44;;;;;;;4.03;1.50;;;6.60;99.90;;;;;;5055032;28;20192;-77
2021/01/12 03:51:12;;;;;;;3.97;1.80;;;6.60;99.90;;;;;;5070494;28;20211;-77
2021/01/12 03:53:38;;;;;;;3.23;1.67;;;6.60;99.90;;;;;;5068099;28;20286;-77
2021/01/12 03:56:05;;;;;;;2.77;1.50;;;6.50;99.90;;;;;;5056267;28;20235;-77
2021/01/12 03:58:31;;;;;;;2.73;1.40;;;6.50;99.90;;;;;;5058288;28;20226;-77
2021/01/12 04:00:58;;;;;;;4.73;1.70;;;6.50;99.90;;;;;;5061079;28;20208;-77
2021/01/12 04:03:28;;;;;;;4.07;1.70;;;6.50;99.90;;;;;;5064481;28;20230;-77
2021/01/12 04:05:54;;;;;;;4.37;1.80;;;6.50;99.90;;;;;;5058432;28;20287;-77
2021/01/12 04:08:21;;;;;;;5.07;1.90;;;6.50;99.90;;;;;;5072274;28;20240;-77
2021/01/12 04:10:48;;;;;;;4.30;1.70;;;6.50;99.90;;;;;;5070961;28;20557;-77
2021/01/12 04:13:14;;;;;;;4.73;1.77;;;6.60;99.90;;;;;;5073575;28;20232;-77
2021/01/12 04:15:40;;;;;;;3.57;1.40;;;6.60;99.90;;;;;;5073083;28;20243;-77
2021/01/12 04:18:07;;;;;;;6.13;1.70;;;6.60;99.90;;;;;;5073474;28;20640;-77
2021/01/12 04:20:33;;;;;;;3.87;1.50;;;6.60;99.90;;;;;;5071204;28;20265;-77
2021/01/12 04:23:00;;;;;;;2.23;1.50;;;6.60;99.90;;;;;;5072975;28;20238;-77
2021/01/12 04:25:27;;;;;;;2.60;1.20;;;6.60;99.90;;;;;;5069150;28;20661;-77
2021/01/12 04:27:54;;;;;;;2.73;1.70;;;6.60;99.90;;;;;;5053364;28;20551;-77
2021/01/12 04:30:20;;;;;;;4.67;1.63;;;6.70;99.90;;;;;;5062867;28;20229;-77
2021/01/12 04:32:47;;;;;;;5.73;1.70;;;6.70;99.90;;;;;;5073171;28;20237;-77
2021/01/12 04:35:13;;;;;;;3.97;1.90;;;6.70;99.90;;;;;;5073326;28;20226;-77
2021/01/12 04:37:40;;;;;;;4.93;1.20;;;6.70;99.90;;;;;;5072905;28;20243;-77
2021/01/12 04:40:07;;;;;;;4.27;1.40;;;6.70;99.90;;;;;;5073095;28;20264;-77
2021/01/12 04:42:35;;;;;;;3.87;1.40;;;6.70;99.90;;;;;;5072735;28;20297;-77
2021/01/12 04:45:04;;;;;;;5.47;1.40;;;6.70;99.90;;;;;;5055951;28;22172;-77
2021/01/12 04:47:30;;;;;;;6.07;1.50;;;6.70;99.90;;;;;;5052672;28;20694;-77
2021/01/12 04:49:57;;;;;;;5.73;1.50;;;6.70;99.90;;;;;;5052238;28;20227;-77
2021/01/12 04:52:23;;;;;;;5.50;1.50;;;6.70;99.90;;;;;;5052914;28;20242;-77
2021/01/12 04:54:52;;;;;;;6.77;1.57;;;6.70;99.90;;;;;;5050908;28;20268;-77
2021/01/12 04:57:18;;;;;;;2.83;1.30;;;6.70;99.90;;;;;;5059058;28;20197;-77
2021/01/12 04:59:46;;;;;;;7.30;1.70;;;6.70;99.90;;;;;;5072353;28;20241;-77
2021/01/12 05:02:14;;;;;;;3.93;1.60;;;6.70;99.90;;;;;;5072783;28;20648;-77
2021/01/12 05:04:43;;;;;;;3.90;1.30;;;6.70;99.90;;;;;;5072801;28;20219;-77
2021/01/12 05:07:10;;;;;;;4.33;1.43;;;6.70;99.90;;;;;;5051915;28;20242;-77
2021/01/12 05:09:39;;;;;;;4.60;1.80;;;6.70;99.90;;;;;;5052552;28;20697;-77
2021/01/12 05:12:07;;;;;;;5.20;1.70;;;6.70;99.90;;;;;;5051484;28;20245;-77
2021/01/12 05:14:38;;;;;;;4.70;1.50;;;6.80;99.90;;;;;;5046802;28;20257;-77
2021/01/12 05:17:06;;;;;;;3.63;1.33;;;6.70;99.90;;;;;;5072743;28;20194;-77
2021/01/12 05:19:33;;;;;;;5.73;1.40;;;6.80;99.90;;;;;;5065682;28;20318;-77
2021/01/12 05:22:03;;;;;;;6.27;1.40;;;6.80;99.90;;;;;;5054595;28;20197;-77
2021/01/12 05:24:31;;;;;;;4.47;1.40;;;6.80;99.90;;;;;;5071914;28;20237;-77
2021/01/12 05:27:05;;;;;;;4.93;1.57;;;6.80;99.90;;;;;;5072140;28;20236;-77
2021/01/12 05:29:34;;;;;;;5.43;1.40;;;6.80;99.90;;;;;;5070063;28;20204;-77
2021/01/12 05:32:03;;;;;;;3.17;1.10;;;6.80;99.90;;;;;;5057509;28;20286;-77
2021/01/12 05:34:35;;;;;;;3.73;1.37;;;6.80;99.90;;;;;;5072043;28;20211;-77
2021/01/12 05:37:04;;;;;;;6.77;1.37;;;6.80;99.90;;;;;;5075327;28;20233;-77
2021/01/12 05:39:36;;;;;;;4.17;1.40;;;6.80;99.90;;;;;;5076645;28;20210;-77
2021/01/12 05:42:05;;;;;;;5.40;2.77;;;6.80;99.90;;;;;;5075789;28;20231;-77
2021/01/12 05:44:35;;;;;;;8.07;3.13;;;6.80;99.90;;;;;;5074782;28;20212;-77
2021/01/12 05:47:02;;;;;;;8.80;3.17;;;6.80;99.90;;;;;;5075978;28;20221;-77
2021/01/12 05:49:30;;;;;;;6.13;2.27;;;6.90;99.90;;;;;;5075813;28;20237;-77
2021/01/12 05:51:56;;;;;;;3.63;2.07;;;6.80;99.90;;;;;;5076143;28;20281;-77
2021/01/12 05:54:32;;;;;;;5.63;2.17;;;6.80;99.90;;;;;;5074191;28;20240;-77
2021/01/12 05:57:00;;;;;;;4.50;1.90;;;6.80;99.90;;;;;;5067893;28;20244;-77
2021/01/12 05:59:28;;;;;;;7.03;2.20;;;6.80;99.90;;;;;;5075769;28;20595;-77
2021/01/12 06:01:55;;;;;;;8.63;2.30;;;6.80;99.90;;;;;;5076492;28;20234;-77
2021/01/12 06:04:23;;;;;;;5.20;1.90;;;6.80;99.90;;;;;;5075708;28;20209;-76
2021/01/12 06:06:52;;;;;;;7.03;1.87;;;6.80;99.90;;;;;;5057714;28;20255;-76
2021/01/12 06:09:19;;;;;;;9.07;1.83;;;6.80;99.90;;;;;;5038004;28;20673;-77
2021/01/12 06:11:48;;;;;;;6.80;2.00;;;6.80;99.90;;;;;;5056804;28;20276;-76
2021/01/12 06:14:16;;;;;;;4.90;1.53;;;6.80;99.90;;;;;;5035658;28;20249;-76
2021/01/12 06:16:44;;;;;;;4.83;1.50;;;6.80;99.90;;;;;;5060528;28;20237;-77
2021/01/12 06:19:14;;;;;;;5.90;1.93;;;6.80;99.90;;;;;;5057641;28;20258;-76
2021/01/12 06:22:15;;;;;;;7.23;2.13;;;6.80;99.90;;;;;;5075685;28;20195;-76
2021/01/12 06:24:53;;;;;;;5.87;1.60;;;6.80;99.90;;;;;;5075537;28;20610;-76
2021/01/12 06:27:25;;;;;;;6.10;1.90;;;6.90;99.90;;;;;;5057265;28;20244;-75
2021/01/12 06:29:52;;;;;;;5.50;1.50;;;7.00;99.90;;;;;;5057124;28;20674;-76
2021/01/12 06:32:20;;;;;;;6.73;1.43;;;7.00;99.90;;;;;;5063824;28;20544;-78
2021/01/12 06:34:50;;;;;;;10.50;2.00;;;7.00;99.90;;;;;;5067300;28;20197;-77
2021/01/12 06:37:19;;;;;;;7.80;1.67;;;7.10;99.90;;;;;;5068405;28;20226;-77
2021/01/12 06:39:47;;;;;;;4.43;2.00;;;7.10;99.90;;;;;;5062209;28;20340;-77
2021/01/12 06:42:16;;;;;;;7.90;1.67;;;7.10;99.90;;;;;;5056807;28;20737;-78
2021/01/12 06:44:43;;;;;;;7.93;1.47;;;7.10;99.90;;;;;;5065674;28;20210;-77
2021/01/12 06:47:11;;;;;;;8.00;1.80;;;7.20;99.90;;;;;;5067092;28;20257;-77
2021/01/12 06:49:39;;;;;;;5.20;1.63;;;7.20;99.90;;;;;;5072934;28;20296;-78
2021/01/12 06:52:07;;;;;;;4.90;1.77;;;7.20;99.90;;;;;;5070960;28;20205;-77
2021/01/12 06:54:35;;;;;;;5.67;1.73;;;7.30;99.90;;;;;;5072605;28;20238;-78
2021/01/12 06:57:04;;;;;;;8.50;1.50;;;7.30;99.90;;;;;;5073636;28;20281;-78
2021/01/12 06:59:39;;;;;;;6.40;2.00;;;7.30;99.90;;;;;;5048340;28;20236;-77
2021/01/12 07:02:15;;;;;;;5.70;2.07;;;7.30;99.90;;;;;;5064655;28;20282;-78
2021/01/12 07:04:52;;;;;;;7.33;2.27;;;7.30;99.90;;;;;;5057894;28;20204;-78
2021/01/12 07:07:22;;;;;;;7.37;2.60;;;7.40;99.90;;;;;;5061422;28;20322;-78
2021/01/12 07:09:51;;;;;;;8.20;4.00;;;7.40;99.90;;;;;;5066078;28;20282;-77
2021/01/12 07:12:21;;;;;;;6.90;2.67;;;7.40;99.90;;;;;;5073355;28;20685;-78
2021/01/12 07:14:50;;;;;;;7.47;2.60;;;7.40;99.90;;;;;;5064910;28;20235;-78
2021/01/12 07:17:24;;;;;;;6.37;2.40;;;7.40;99.90;;;;;;5067213;28;20195;-77
2021/01/12 07:20:01;;;;;;;8.40;2.40;;;7.40;99.90;;;;;;5062674;28;20293;-78
2021/01/12 07:22:31;;;;;;;5.83;2.23;;;7.40;99.90;;;;;;5049144;28;20283;-78
2021/01/12 07:25:00;;;;;;;8.57;2.03;;;7.40;99.90;;;;;;5059685;28;20285;-78
2021/01/12 07:27:27;;;;;;;3.30;1.40;;;7.30;99.90;;;;;;5064777;28;20268;-78
2021/01/12 07:29:54;;;;;;;5.13;1.60;;;7.30;99.90;;;;;;5070098;28;20252;-78
2021/01/12 07:32:25;;;;;;;6.83;1.47;;;7.30;99.90;;;;;;5073225;28;20233;-78
2021/01/12 07:34:55;;;;;;;6.47;1.60;;;7.30;99.90;;;;;;5055790;28;20645;-78
2021/01/12 07:37:31;;;;;;;6.47;1.50;;;7.40;99.90;;;;;;5073205;28;20677;-78
2021/01/12 07:39:59;;;;;;;8.80;2.83;;;7.40;99.90;;;;;;5062881;28;20230;-79
2021/01/12 07:42:25;;;;;;;6.40;1.97;;;7.40;99.90;;;;;;5072853;28;20234;-79
2021/01/12 07:44:52;;;;;;;7.57;1.80;;;7.40;99.90;;;;;;5067857;28;20661;-78
2021/01/12 07:47:19;;;;;;;5.47;1.70;;;7.40;99.90;;;;;;5071611;28;20652;-78
2021/01/12 07:49:49;;;;;;;9.00;2.40;;;7.40;99.90;;;;;;5071208;28;20233;-78
2021/01/12 07:52:17;;;;;;;7.40;2.30;;;7.40;99.90;;;;;;5071681;28;20226;-78
2021/01/12 07:54:44;;;;;;;7.47;2.20;;;7.40;99.90;;;;;;5059876;28;20264;-78
2021/01/12 07:57:13;;;;;;;8.53;1.80;;;7.40;99.90;;;;;;5055589;28;20284;-78
2021/01/12 07:59:41;;;;;;;6.17;1.73;;;7.40;99.90;;;;;;5069700;28;20688;-78
2021/01/12 08:02:07;;;;;;;7.23;1.57;;;7.40;99.90;;;;;;5065033;28;20249;-78
2021/01/12 08:04:34;;;;;;;6.97;1.77;;;7.50;99.90;;;;;;5064016;28;20694;-78
2021/01/12 08:07:01;;;;;;;4.60;1.50;;;7.50;99.90;;;;;;5068116;28;20310;-78
2021/01/12 08:09:27;;;;;;;7.33;1.70;;;7.50;99.90;;;;;;5069161;28;20574;-79
2021/01/12 08:11:59;;;;;;;4.47;1.50;;;7.50;99.90;;;;;;5072842;28;20230;-80
2021/01/12 08:14:27;;;;;;;5.27;1.97;;;7.50;99.90;;;;;;5062718;28;20230;-80
2021/01/12 08:16:54;;;;;;;9.57;2.10;;;7.50;99.90;;;;;;5064890;28;20222;-79
2021/01/12 08:19:22;;;;;;;8.93;2.30;;;7.60;99.90;;;;;;5071560;28;20289;-79
2021/01/12 08:21:49;;;;;;;3.73;2.00;;;7.60;99.90;;;;;;5071671;28;20233;-81
2021/01/12 08:24:23;;;;;;;10.53;2.97;;;7.70;99.90;;;;;;5067504;28;20630;-81
2021/01/12 08:26:50;;;;;;;5.70;2.03;;;7.70;99.90;;;;;;5064247;28;20687;-80
2021/01/12 08:29:22;;;;;;;4.53;1.50;;;7.70;99.90;;;;;;5070588;28;20201;-81
2021/01/12 08:31:54;;;;;;;6.67;2.60;;;7.70;99.90;;;;;;5071954;28;20199;-81
2021/01/12 08:34:25;;;;;;;9.40;2.00;;;7.80;99.90;;;;;;5072403;28;20568;-81
2021/01/12 08:36:51;;;;;;;4.47;1.47;;;7.80;99.90;;;;;;5055080;28;20227;-80
2021/01/12 08:39:19;;;;;;;5.53;1.50;;;7.80;99.90;;;;;;5072793;28;20231;-81
2021/01/12 08:41:47;;;;;;;4.57;1.63;;;7.90;99.90;;;;;;5066204;28;20231;-80
2021/01/12 08:44:16;;;;;;;9.13;2.30;;;7.90;99.90;;;;;;5068160;28;20233;-80
2021/01/12 08:46:43;;;;;;;7.20;1.90;;;7.90;99.90;;;;;;5063401;28;20226;-80
2021/01/12 08:49:10;;;;;;;7.10;1.93;;;7.90;99.90;;;;;;5064002;28;20234;-80
2021/01/12 08:51:38;;;;;;;10.50;1.90;;;8.00;99.90;;;;;;5071631;28;20686;-80
2021/01/12 08:54:06;;;;;;;7.33;2.77;;;8.00;99.90;;;;;;5060659;28;20223;-80
2021/01/12 08:56:33;;;;;;;7.63;2.90;;;8.10;99.90;;;;;;5071530;28;20193;-81
2021/01/12 08:59:06;;;;;;;10.03;2.73;;;8.10;99.90;;;;;;5059143;28;20239;-81
2021/01/12 09:01:35;;;;;;;6.23;2.50;;;8.10;99.90;;;;;;5057555;28;20227;-81
2021/01/12 09:04:06;;;;;;;4.97;2.17;;;8.10;99.90;;;;;;5064800;28;20194;-81
2021/01/12 09:06:35;;;;;;;6.50;2.27;;;8.20;99.90;;;;;;5056031;28;20654;-80
2021/01/12 09:09:09;;;;;;;9.20;2.30;;;8.20;99.90;;;;;;5069030;28;20230;-81
2021/01/12 09:11:43;;;;;;;6.97;2.70;;;8.20;99.90;;;;;;5063367;28;20627;-81
2021/01/12 09:14:11;;;;;;;5.93;1.83;;;8.30;99.90;;;;;;5071168;28;20731;-80
2021/01/12 09:16:40;;;;;;;6.67;2.30;;;8.40;99.90;;;;;;5069730;28;20225;-80
2021/01/12 09:19:14;;;;;;;8.17;3.10;;;8.40;99.90;;;;;;5058001;28;20263;-81
2021/01/12 09:21:41;;;;;;;6.53;2.67;;;8.50;99.90;;;;;;5064557;28;20205;-80
2021/01/12 09:24:15;;;;;;;6.87;1.93;;;8.50;99.90;;;;;;5064864;28;20226;-80
2021/01/12 09:26:42;;;;;;;9.30;2.60;;;8.50;99.90;;;;;;5055348;28;20255;-80
2021/01/12 09:29:09;;;;;;;6.83;2.20;;;8.60;99.90;;;;;;5052001;28;20206;-80
2021/01/12 09:31:46;;;;;;;7.87;2.53;;;8.60;99.90;;;;;;5069415;28;20232;-81
2021/01/12 09:34:21;;;;;;;5.53;1.93;;;8.70;99.90;;;;;;5067078;28;20295;-81
2021/01/12 09:36:49;;;;;;;6.30;2.17;;;8.70;99.90;;;;;;5065015;28;20241;-80
2021/01/12 09:39:16;;;;;;;5.53;1.70;;;8.70;99.90;;;;;;5071139;28;20690;-81
2021/01/12 09:41:44;;;;;;;5.13;1.93;;;8.70;99.90;;;;;;5069324;28;20268;-81
2021/01/12 09:44:10;;;;;;;5.23;2.10;;;8.80;99.90;;;;;;5057291;28;20196;-80
2021/01/12 09:46:37;;;;;;;6.13;2.10;;;8.80;99.90;;;;;;5066847;28;20347;-80
2021/01/12 09:49:04;;;;;;;5.33;1.77;;;8.80;99.90;;;;;;5070444;28;20222;-80
2021/01/12 09:51:31;;;;;;;8.73;1.60;;;8.80;99.90;;;;;;5059290;28;20192;-80
2021/01/12 09:53:58;;;;;;;5.03;2.37;;;8.80;99.90;;;;;;5063846;28;20231;-80
2021/01/12 09:56:24;;;;;;;4.57;2.00;;;8.90;99.90;;;;;;5053180;28;20230;-80
2021/01/12 09:58:52;;;;;;;7.00;1.63;;;8.90;99.90;;;;;;5061852;28;20306;-80
2021/01/12 10:01:24;;;;;;;4.53;1.60;;;9.00;99.90;;;;;;5059049;28;20669;-80
2021/01/12 10:03:53;;;;;;;6.67;1.80;;;9.10;99.90;;;;;;5055886;28;20196;-80
2021/01/12 10:06:22;;;;;;;6.77;2.77;;;9.10;99.90;;;;;;5065722;28;20225;-80
2021/01/12 10:08:51;;;;;;;5.33;3.03;;;9.20;99.90;;;;;;5065861;28;20259;-81
2021/01/12 10:11:20;;;;;;;4.57;2.20;;;9.20;99.90;;;;;;5068541;28;20219;-80
2021/01/12 10:13:47;;;;;;;7.93;2.37;;;9.30;99.90;;;;;;5068559;28;20732;-81
2021/01/12 10:16:20;;;;;;;6.57;2.40;;;9.30;99.90;;;;;;5059689;28;20221;-81
2021/01/12 10:18:47;;;;;;;5.43;1.90;;;9.30;99.90;;;;;;5052294;28;20293;-80
2021/01/12 10:21:16;;;;;;;6.87;1.93;;;9.30;99.90;;;;;;5064984;28;20286;-81
2021/01/12 10:23:43;;;;;;;4.23;1.90;;;9.20;99.90;;;;;;5056901;28;20201;-81
2021/01/12 10:26:13;;;;;;;6.37;2.50;;;9.20;99.90;;;;;;5068138;28;20692;-81
2021/01/12 10:28:40;;;;;;;3.77;1.90;;;9.30;99.90;;;;;;5071152;28;20211;-80
2021/01/12 10:31:10;;;;;;;5.20;2.90;;;9.30;99.90;;;;;;5069406;28;20283;-81
2021/01/12 10:33:36;;;;;;;4.23;2.10;;;9.30;99.90;;;;;;5063481;28;20196;-81
2021/01/12 10:36:03;;;;;;;4.77;2.53;;;9.30;99.90;;;;;;5069032;28;20226;-81
2021/01/12 10:38:30;;;;;;;6.43;3.07;;;9.30;99.90;;;;;;5066325;28;20200;-81
2021/01/12 10:40:56;;;;;;;7.93;4.40;;;9.30;99.90;;;;;;5054005;28;20232;-80
2021/01/12 10:43:24;;;;;;;6.77;3.90;;;9.30;99.90;;;;;;5071041;28;20238;-80
2021/01/12 10:45:52;;;;;;;3.53;2.63;;;9.20;99.90;;;;;;5063127;28;20226;-80
2021/01/12 10:48:18;;;;;;;8.13;3.27;;;9.20;99.90;;;;;;5057977;28;20233;-81
2021/01/12 10:50:45;;;;;;;10.93;3.50;;;9.20;99.90;;;;;;5065533;28;20197;-81
2021/01/12 10:53:11;;;;;;;5.43;2.80;;;9.10;99.90;;;;;;5069686;28;20302;-80
2021/01/12 10:55:37;;;;;;;6.00;2.87;;;9.10;99.90;;;;;;5062724;28;20201;-81
2021/01/12 10:58:04;;;;;;;5.40;3.37;;;9.00;99.90;;;;;;5064051;28;20672;-81
2021/01/12 11:00:34;;;;;;;7.33;3.83;;;9.00;99.90;;;;;;5064375;28;20225;-80
2021/01/12 11:03:04;;;;;;;8.20;3.80;;;9.00;99.90;;;;;;5068293;28;20200;-81
2021/01/12 11:05:30;;;;;;;6.97;3.50;;;9.00;99.90;;;;;;5071888;28;20205;-80
2021/01/12 11:08:00;;;;;;;8.70;4.67;;;9.00;99.90;;;;;;5066309;28;20242;-81
2021/01/12 11:10:27;;;;;;;8.17;3.37;;;9.00;99.90;;;;;;5071547;28;20684;-81
2021/01/12 11:12:53;;;;;;;10.37;5.03;;;9.00;99.90;;;;;;5063759;28;20205;-81
2021/01/12 11:15:20;;;;;;;8.63;3.80;;;9.00;99.90;;;;;;5062285;28;20297;-80
2021/01/12 11:17:50;;;;;;;6.17;3.10;;;9.00;99.90;;;;;;5067554;28;20403;-81
2021/01/12 11:20:18;;;;;;;5.67;2.53;;;9.00;99.90;;;;;;5062536;28;20859;-81
2021/01/12 11:22:44;;;;;;;6.20;3.03;;;9.10;99.90;;;;;;5066391;28;20686;-84
2021/01/12 11:25:12;;;;;;;5.23;3.10;;;9.10;99.90;;;;;;5066966;28;20672;-82
2021/01/12 11:27:42;;;;;;;7.80;3.20;;;9.10;99.90;;;;;;5071269;28;20746;-79
2021/01/12 11:30:09;;;;;;;7.00;4.07;;;9.10;99.90;;;;;;5060062;28;20208;-80
2021/01/12 11:32:39;;;;;;;5.57;3.70;;;9.10;99.90;;;;;;5073910;28;20235;-80
2021/01/12 11:35:06;;;;;;;9.43;4.07;;;9.10;99.90;;;;;;5070213;28;20202;-80
2021/01/12 11:37:33;;;;;;;4.13;2.77;;;9.20;99.90;;;;;;5072648;28;20239;-77
2021/01/12 11:40:01;;;;;;;4.23;2.20;;;9.20;99.90;;;;;;5070940;28;20204;-79
2021/01/12 11:42:28;;;;;;;6.47;2.20;;;9.30;99.90;;;;;;5064901;28;20206;-79
2021/01/12 11:44:54;;;;;;;5.03;2.40;;;9.30;99.90;;;;;;5068128;28;20613;-79
2021/01/12 11:47:20;;;;;;;4.63;2.50;;;9.40;99.90;;;;;;5071951;28;20242;-80
2021/01/12 11:49:48;;;;;;;5.63;2.63;;;9.40;99.90;;;;;;5071055;28;20240;-79
2021/01/12 11:52:16;;;;;;;4.67;2.40;;;9.40;99.90;;;;;;5072242;28;20233;-80
2021/01/12 11:54:44;;;;;;;4.93;2.57;;;9.40;99.90;;;;;;5071348;28;20711;-80
2021/01/12 11:57:11;;;;;;;7.23;2.50;;;9.50;99.90;;;;;;5071152;28;20288;-79
2021/01/12 11:59:37;;;;;;;6.20;2.60;;;9.50;99.90;;;;;;5065392;28;20199;-77
2021/01/12 12:02:04;;;;;;;3.83;2.70;;;9.40;99.90;;;;;;5073760;28;20235;-77
2021/01/12 12:04:30;;;;;;;5.27;2.77;;;9.50;99.90;;;;;;5061130;28;20277;-77
2021/01/12 12:07:00;;;;;;;5.73;2.53;;;9.50;99.90;;;;;;5065508;28;20308;-78
2021/01/12 12:09:27;;;;;;;4.30;2.20;;;9.50;99.90;;;;;;5072972;28;20208;-78
2021/01/12 12:11:55;;;;;;;5.47;2.20;;;9.50;99.90;;;;;;5063853;28;20236;-77
2021/01/12 12:14:22;;;;;;;5.27;2.13;;;9.50;99.90;;;;;;5063413;28;20283;-78
2021/01/12 12:16:49;;;;;;;3.90;2.20;;;9.60;99.90;;;;;;5064619;28;20285;-77
2021/01/12 12:19:16;;;;;;;6.10;2.33;;;9.60;99.90;;;;;;5069886;28;20258;-78
2021/01/12 12:21:47;;;;;;;3.83;1.80;;;9.70;99.90;;;;;;5070123;28;20253;-80
2021/01/12 12:24:15;;;;;;;3.37;2.10;;;9.70;99.90;;;;;;5066263;28;20202;-78
2021/01/12 12:26:42;;;;;;;4.17;1.70;;;9.70;99.90;;;;;;5060342;28;20852;-79
2021/01/12 12:29:09;;;;;;;6.07;1.80;;;9.70;99.90;;;;;;5067532;28;20233;-79
2021/01/12 12:31:36;;;;;;;3.20;2.00;;;9.70;99.90;;;;;;5067807;28;20233;-81
2021/01/12 12:34:02;;;;;;;3.90;1.47;;;9.80;99.90;;;;;;5071991;28;20635;-80
2021/01/12 12:36:29;;;;;;;4.97;1.70;;;9.80;99.90;;;;;;5066124;28;20218;-79
2021/01/12 12:38:56;;;;;;;3.47;1.67;;;9.80;99.90;;;;;;5064760;28;20255;-81
2021/01/12 12:41:22;;;;;;;4.33;1.80;;;9.90;99.90;;;;;;5066751;28;20242;-79
2021/01/12 12:43:49;;;;;;;4.23;1.90;;;9.90;99.90;;;;;;5071565;28;20230;-77
2021/01/12 12:46:18;;;;;;;4.90;2.07;;;9.90;99.90;;;;;;5060351;28;20301;-79
2021/01/12 12:48:45;;;;;;;2.83;1.57;;;10.00;99.90;;;;;;5059362;28;20206;-79
2021/01/12 12:51:13;;;;;;;3.93;1.90;;;10.00;99.90;;;;;;5060182;28;20233;-79
2021/01/12 12:53:41;;;;;;;2.17;1.50;;;10.00;99.90;;;;;;5056679;28;20292;-79
2021/01/12 12:56:11;;;;;;;2.80;1.70;;;10.10;99.90;;;;;;5062553;28;20677;-80
2021/01/12 12:58:38;;;;;;;2.57;1.43;;;10.00;99.90;;;;;;5058251;28;20317;-79
2021/01/12 13:01:05;;;;;;;3.10;1.57;;;10.10;99.90;;;;;;5064110;28;20340;-79
2021/01/12 13:03:34;;;;;;;3.97;1.73;;;10.00;99.90;;;;;;5071370;28;20234;-79